sensor_id;sensor_type;location;lat;lon;timestamp;temperature;humidity
31639;DHT22;18248;51.522;7.020;2023-07-13T00:02:04;19.60;99.90
31639;DHT22;18248;51.522;7.020;2023-07-13T00:05:04;19.50;99.90
31639;DHT22;18248;51.522;7.020;2023-07-13T00:08:05;19.40;99.90
31639;DHT22;18248;51.522;7.020;2023-07-13T00:11:04;19.40;99.90
31639;DHT22;18248;51.522;7.020;2023-07-13T00:14:02;19.30;99.90
31639;DHT22;18248;51.522;7.020;2023-07-13T00:17:01;19.20;99.90
31639;DHT22;18248;51.522;7.020;2023-07-13T00:20:00;19.20;99.90
31639;DHT22;18248;51.522;7.020;2023-07-13T00:22:58;19.20;99.90
31639;DHT22;18248;51.522;7.020;2023-07-13T00:25:57;19.10;99.90
31639;DHT22;18248;51.522;7.020;2023-07-13T00:28:55;19.10;99.90
31639;DHT22;18248;51.522;7.020;2023-07-13T00:31:54;19.10;99.90
31639;DHT22;18248;51.522;7.020;2023-07-13T00:34:53;19.00;99.90
31639;DHT22;18248;51.522;7.020;2023-07-13T00:37:51;19.00;99.90
31639;DHT22;18248;51.522;7.020;2023-07-13T00:40:50;18.90;99.90
31639;DHT22;18248;51.522;7.020;2023-07-13T00:43:48;18.90;99.90
31639;DHT22;18248;51.522;7.020;2023-07-13T00:46:47;18.90;99.90
31639;DHT22;18248;51.522;7.020;2023-07-13T00:49:46;18.80;99.90
31639;DHT22;18248;51.522;7.020;2023-07-13T00:52:47;18.70;99.90
31639;DHT22;18248;51.522;7.020;2023-07-13T00:55:49;18.70;99.90
31639;DHT22;18248;51.522;7.020;2023-07-13T00:58:48;18.60;99.90
31639;DHT22;18248;51.522;7.020;2023-07-13T01:01:48;18.60;99.90
31639;DHT22;18248;51.522;7.020;2023-07-13T01:04:47;18.60;99.90
31639;DHT22;18248;51.522;7.020;2023-07-13T01:07:49;18.60;99.90
31639;DHT22;18248;51.522;7.020;2023-07-13T01:10:57;18.60;99.90
31639;DHT22;18248;51.522;7.020;2023-07-13T01:13:56;18.50;99.90
31639;DHT22;18248;51.522;7.020;2023-07-13T01:16:55;18.50;99.90
31639;DHT22;18248;51.522;7.020;2023-07-13T01:19:54;18.50;99.90
31639;DHT22;18248;51.522;7.020;2023-07-13T01:22:53;18.50;99.90
31639;DHT22;18248;51.522;7.020;2023-07-13T01:25:52;18.40;99.90
31639;DHT22;18248;51.522;7.020;2023-07-13T01:28:51;18.40;99.90
31639;DHT22;18248;51.522;7.020;2023-07-13T01:31:49;18.40;99.90
31639;DHT22;18248;51.522;7.020;2023-07-13T01:34:49;18.30;99.90
31639;DHT22;18248;51.522;7.020;2023-07-13T01:37:47;18.20;99.90
31639;DHT22;18248;51.522;7.020;2023-07-13T01:40:46;18.20;99.90
31639;DHT22;18248;51.522;7.020;2023-07-13T01:43:45;18.20;99.90
31639;DHT22;18248;51.522;7.020;2023-07-13T01:46:43;18.10;99.90
31639;DHT22;18248;51.522;7.020;2023-07-13T01:49:42;18.00;99.90
31639;DHT22;18248;51.522;7.020;2023-07-13T01:52:40;18.00;99.90
31639;DHT22;18248;51.522;7.020;2023-07-13T01:55:39;17.90;99.90
31639;DHT22;18248;51.522;7.020;2023-07-13T01:58:38;17.80;99.90
31639;DHT22;18248;51.522;7.020;2023-07-13T02:01:36;17.80;99.90
31639;DHT22;18248;51.522;7.020;2023-07-13T02:04:36;17.80;99.90
31639;DHT22;18248;51.522;7.020;2023-07-13T02:07:35;17.80;99.90
31639;DHT22;18248;51.522;7.020;2023-07-13T02:10:33;17.80;99.90
31639;DHT22;18248;51.522;7.020;2023-07-13T02:13:32;17.70;99.90
31639;DHT22;18248;51.522;7.020;2023-07-13T02:16:31;17.60;99.90
31639;DHT22;18248;51.522;7.020;2023-07-13T02:19:29;17.60;99.90
31639;DHT22;18248;51.522;7.020;2023-07-13T02:22:28;17.60;99.90
31639;DHT22;18248;51.522;7.020;2023-07-13T02:25:26;17.60;99.90
31639;DHT22;18248;51.522;7.020;2023-07-13T02:28:25;17.60;99.90
31639;DHT22;18248;51.522;7.020;2023-07-13T02:31:24;17.50;99.90
31639;DHT22;18248;51.522;7.020;2023-07-13T02:34:22;17.50;99.90
31639;DHT22;18248;51.522;7.020;2023-07-13T02:37:21;17.50;99.90
31639;DHT22;18248;51.522;7.020;2023-07-13T02:40:19;17.40;99.90
31639;DHT22;18248;51.522;7.020;2023-07-13T02:43:18;17.40;99.90
31639;DHT22;18248;51.522;7.020;2023-07-13T02:46:17;17.40;99.90
31639;DHT22;18248;51.522;7.020;2023-07-13T02:49:17;17.40;99.90
31639;DHT22;18248;51.522;7.020;2023-07-13T02:52:16;17.30;99.90
31639;DHT22;18248;51.522;7.020;2023-07-13T02:55:15;17.30;99.90
31639;DHT22;18248;51.522;7.020;2023-07-13T02:58:13;17.30;99.90
31639;DHT22;18248;51.522;7.020;2023-07-13T03:01:15;17.30;99.90
31639;DHT22;18248;51.522;7.020;2023-07-13T03:04:16;17.30;99.90
31639;DHT22;18248;51.522;7.020;2023-07-13T03:07:17;17.30;99.90
31639;DHT22;18248;51.522;7.020;2023-07-13T03:10:16;17.20;99.90
31639;DHT22;18248;51.522;7.020;2023-07-13T03:13:14;17.20;99.90
31639;DHT22;18248;51.522;7.020;2023-07-13T03:16:14;17.10;99.90
31639;DHT22;18248;51.522;7.020;2023-07-13T03:19:14;17.20;99.90
31639;DHT22;18248;51.522;7.020;2023-07-13T03:22:12;17.10;99.90
31639;DHT22;18248;51.522;7.020;2023-07-13T03:25:11;17.10;99.90
31639;DHT22;18248;51.522;7.020;2023-07-13T03:28:09;17.20;99.90
31639;DHT22;18248;51.522;7.020;2023-07-13T03:31:15;17.10;99.90
31639;DHT22;18248;51.522;7.020;2023-07-13T03:34:14;17.20;99.90
31639;DHT22;18248;51.522;7.020;2023-07-13T03:37:12;17.10;99.90
31639;DHT22;18248;51.522;7.020;2023-07-13T03:40:12;17.10;99.90
31639;DHT22;18248;51.522;7.020;2023-07-13T03:43:10;17.10;99.90
31639;DHT22;18248;51.522;7.020;2023-07-13T03:46:10;17.10;99.90
31639;DHT22;18248;51.522;7.020;2023-07-13T03:49:10;17.10;99.90
31639;DHT22;18248;51.522;7.020;2023-07-13T03:52:08;17.10;99.90
31639;DHT22;18248;51.522;7.020;2023-07-13T03:55:07;17.10;99.90
31639;DHT22;18248;51.522;7.020;2023-07-13T03:58:31;17.10;99.90
31639;DHT22;18248;51.522;7.020;2023-07-13T04:01:30;17.10;99.90
31639;DHT22;18248;51.522;7.020;2023-07-13T04:04:29;17.10;99.90
31639;DHT22;18248;51.522;7.020;2023-07-13T04:07:29;17.10;99.90
31639;DHT22;18248;51.522;7.020;2023-07-13T04:10:27;17.20;99.90
31639;DHT22;18248;51.522;7.020;2023-07-13T04:13:26;17.20;99.90
31639;DHT22;18248;51.522;7.020;2023-07-13T04:16:25;17.20;99.90
31639;DHT22;18248;51.522;7.020;2023-07-13T04:19:23;17.20;99.90
31639;DHT22;18248;51.522;7.020;2023-07-13T04:22:22;17.30;99.90
31639;DHT22;18248;51.522;7.020;2023-07-13T04:25:21;17.30;99.90
31639;DHT22;18248;51.522;7.020;2023-07-13T04:28:22;17.40;99.90
31639;DHT22;18248;51.522;7.020;2023-07-13T04:31:21;17.40;99.90
31639;DHT22;18248;51.522;7.020;2023-07-13T04:34:20;17.50;99.90
31639;DHT22;18248;51.522;7.020;2023-07-13T04:37:20;17.50;99.90
31639;DHT22;18248;51.522;7.020;2023-07-13T04:40:19;17.50;99.90
31639;DHT22;18248;51.522;7.020;2023-07-13T04:43:18;17.50;99.90
31639;DHT22;18248;51.522;7.020;2023-07-13T04:46:17;17.50;99.90
31639;DHT22;18248;51.522;7.020;2023-07-13T04:49:17;17.60;99.90
31639;DHT22;18248;51.522;7.020;2023-07-13T04:52:16;17.60;99.90
31639;DHT22;18248;51.522;7.020;2023-07-13T04:55:14;17.60;99.90
31639;DHT22;18248;51.522;7.020;2023-07-13T04:58:13;17.60;99.90
31639;DHT22;18248;51.522;7.020;2023-07-13T05:01:12;17.60;99.90
31639;DHT22;18248;51.522;7.020;2023-07-13T05:04:12;17.60;99.90
31639;DHT22;18248;51.522;7.020;2023-07-13T05:07:10;17.70;99.90
31639;DHT22;18248;51.522;7.020;2023-07-13T05:10:09;17.70;99.90
31639;DHT22;18248;51.522;7.020;2023-07-13T05:13:08;17.80;99.90
31639;DHT22;18248;51.522;7.020;2023-07-13T05:16:07;17.80;99.90
31639;DHT22;18248;51.522;7.020;2023-07-13T05:19:06;17.80;99.90
31639;DHT22;18248;51.522;7.020;2023-07-13T05:22:04;17.90;99.90
31639;DHT22;18248;51.522;7.020;2023-07-13T05:25:06;18.00;99.90
31639;DHT22;18248;51.522;7.020;2023-07-13T05:28:05;18.00;99.90
31639;DHT22;18248;51.522;7.020;2023-07-13T05:31:04;18.10;99.90
31639;DHT22;18248;51.522;7.020;2023-07-13T05:34:03;18.20;99.90
31639;DHT22;18248;51.522;7.020;2023-07-13T05:37:03;18.30;99.90
31639;DHT22;18248;51.522;7.020;2023-07-13T05:40:02;18.30;99.90
31639;DHT22;18248;51.522;7.020;2023-07-13T05:43:01;18.50;99.90
31639;DHT22;18248;51.522;7.020;2023-07-13T05:45:59;18.50;99.90
31639;DHT22;18248;51.522;7.020;2023-07-13T05:48:58;18.50;99.90
31639;DHT22;18248;51.522;7.020;2023-07-13T05:51:57;18.70;99.90
31639;DHT22;18248;51.522;7.020;2023-07-13T05:54:56;19.00;99.90
31639;DHT22;18248;51.522;7.020;2023-07-13T05:57:54;19.20;99.90
31639;DHT22;18248;51.522;7.020;2023-07-13T06:01:04;19.20;99.90
31639;DHT22;18248;51.522;7.020;2023-07-13T06:04:03;19.40;99.90
31639;DHT22;18248;51.522;7.020;2023-07-13T06:07:02;19.70;99.90
31639;DHT22;18248;51.522;7.020;2023-07-13T06:10:01;20.00;99.90
31639;DHT22;18248;51.522;7.020;2023-07-13T06:12:59;20.50;99.90
31639;DHT22;18248;51.522;7.020;2023-07-13T06:15:58;20.50;99.90
31639;DHT22;18248;51.522;7.020;2023-07-13T06:18:57;21.20;99.90
31639;DHT22;18248;51.522;7.020;2023-07-13T06:21:55;22.30;99.90
31639;DHT22;18248;51.522;7.020;2023-07-13T06:24:54;23.10;99.90
31639;DHT22;18248;51.522;7.020;2023-07-13T06:27:52;22.90;99.90
31639;DHT22;18248;51.522;7.020;2023-07-13T06:30:51;24.00;99.90
31639;DHT22;18248;51.522;7.020;2023-07-13T06:33:49;24.80;99.90
31639;DHT22;18248;51.522;7.020;2023-07-13T06:36:48;24.50;99.90
31639;DHT22;18248;51.522;7.020;2023-07-13T06:39:47;23.90;99.90
31639;DHT22;18248;51.522;7.020;2023-07-13T06:42:45;24.00;99.90
31639;DHT22;18248;51.522;7.020;2023-07-13T06:45:48;24.80;99.90
31639;DHT22;18248;51.522;7.020;2023-07-13T06:48:51;24.60;99.90
31639;DHT22;18248;51.522;7.020;2023-07-13T06:51:51;24.00;99.90
31639;DHT22;18248;51.522;7.020;2023-07-13T06:54:50;23.90;99.90
31639;DHT22;18248;51.522;7.020;2023-07-13T06:57:49;25.10;99.90
31639;DHT22;18248;51.522;7.020;2023-07-13T07:00:50;26.40;99.90
31639;DHT22;18248;51.522;7.020;2023-07-13T07:03:49;26.60;99.90
31639;DHT22;18248;51.522;7.020;2023-07-13T07:06:47;26.10;99.90
31639;DHT22;18248;51.522;7.020;2023-07-13T07:09:46;25.20;99.90
31639;DHT22;18248;51.522;7.020;2023-07-13T07:12:44;24.80;99.90
31639;DHT22;18248;51.522;7.020;2023-07-13T07:15:44;24.30;99.90
31639;DHT22;18248;51.522;7.020;2023-07-13T07:18:43;23.80;99.90
31639;DHT22;18248;51.522;7.020;2023-07-13T07:21:41;23.70;99.90
31639;DHT22;18248;51.522;7.020;2023-07-13T07:24:41;23.50;99.90
31639;DHT22;18248;51.522;7.020;2023-07-13T07:27:39;23.70;99.90
31639;DHT22;18248;51.522;7.020;2023-07-13T07:30:42;24.00;99.90
31639;DHT22;18248;51.522;7.020;2023-07-13T07:33:42;25.10;99.90
31639;DHT22;18248;51.522;7.020;2023-07-13T07:36:41;26.10;99.90
31639;DHT22;18248;51.522;7.020;2023-07-13T07:39:42;27.00;99.90
31639;DHT22;18248;51.522;7.020;2023-07-13T07:42:40;27.70;99.90
31639;DHT22;18248;51.522;7.020;2023-07-13T07:45:39;28.20;99.90
31639;DHT22;18248;51.522;7.020;2023-07-13T07:48:38;28.40;99.90
31639;DHT22;18248;51.522;7.020;2023-07-13T07:51:38;28.50;99.90
31639;DHT22;18248;51.522;7.020;2023-07-13T07:54:37;28.60;99.50
31639;DHT22;18248;51.522;7.020;2023-07-13T07:57:35;28.80;99.00
31639;DHT22;18248;51.522;7.020;2023-07-13T08:00:34;28.30;97.20
31639;DHT22;18248;51.522;7.020;2023-07-13T08:03:34;27.60;98.80
31639;DHT22;18248;51.522;7.020;2023-07-13T08:06:34;28.10;99.70
31639;DHT22;18248;51.522;7.020;2023-07-13T08:09:32;28.30;98.10
31639;DHT22;18248;51.522;7.020;2023-07-13T08:12:37;28.20;97.00
31639;DHT22;18248;51.522;7.020;2023-07-13T08:15:37;28.60;97.30
31639;DHT22;18248;51.522;7.020;2023-07-13T08:18:37;29.50;97.20
31639;DHT22;18248;51.522;7.020;2023-07-13T08:21:36;30.20;95.30
31639;DHT22;18248;51.522;7.020;2023-07-13T08:24:35;30.40;93.70
31639;DHT22;18248;51.522;7.020;2023-07-13T08:27:33;30.90;92.40
31639;DHT22;18248;51.522;7.020;2023-07-13T08:30:32;31.10;90.60
31639;DHT22;18248;51.522;7.020;2023-07-13T08:33:33;31.00;88.80
31639;DHT22;18248;51.522;7.020;2023-07-13T08:36:32;30.20;87.60
31639;DHT22;18248;51.522;7.020;2023-07-13T08:39:32;29.20;90.30
31639;DHT22;18248;51.522;7.020;2023-07-13T08:42:41;29.00;91.10
31639;DHT22;18248;51.522;7.020;2023-07-13T08:45:50;29.50;91.30
31639;DHT22;18248;51.522;7.020;2023-07-13T08:49:17;29.90;88.10
31639;DHT22;18248;51.522;7.020;2023-07-13T08:52:24;29.40;90.20
31639;DHT22;18248;51.522;7.020;2023-07-13T08:55:34;29.20;90.10
31639;DHT22;18248;51.522;7.020;2023-07-13T08:58:36;29.40;90.90
31639;DHT22;18248;51.522;7.020;2023-07-13T09:04:59;28.60;91.60
31639;DHT22;18248;51.522;7.020;2023-07-13T09:08:17;28.00;92.20
31639;DHT22;18248;51.522;7.020;2023-07-13T09:11:46;27.40;93.60
31639;DHT22;18248;51.522;7.020;2023-07-13T09:14:50;27.00;95.10
31639;DHT22;18248;51.522;7.020;2023-07-13T09:17:52;26.80;95.90
31639;DHT22;18248;51.522;7.020;2023-07-13T09:21:02;26.40;96.50
31639;DHT22;18248;51.522;7.020;2023-07-13T09:27:35;26.20;98.30
31639;DHT22;18248;51.522;7.020;2023-07-13T09:33:44;26.30;98.70
31639;DHT22;18248;51.522;7.020;2023-07-13T09:36:43;26.20;99.00
31639;DHT22;18248;51.522;7.020;2023-07-13T09:39:44;26.20;99.90
31639;DHT22;18248;51.522;7.020;2023-07-13T09:42:43;26.20;99.90
31639;DHT22;18248;51.522;7.020;2023-07-13T09:45:45;26.20;99.90
31639;DHT22;18248;51.522;7.020;2023-07-13T09:48:45;26.20;99.90
31639;DHT22;18248;51.522;7.020;2023-07-13T09:51:46;26.00;99.90
31639;DHT22;18248;51.522;7.020;2023-07-13T09:54:46;25.60;99.90
31639;DHT22;18248;51.522;7.020;2023-07-13T09:57:48;25.20;99.90
31639;DHT22;18248;51.522;7.020;2023-07-13T10:01:02;25.20;99.90
31639;DHT22;18248;51.522;7.020;2023-07-13T10:04:13;25.30;99.90
31639;DHT22;18248;51.522;7.020;2023-07-13T10:07:13;25.50;99.90
31639;DHT22;18248;51.522;7.020;2023-07-13T10:10:18;25.50;99.90
31639;DHT22;18248;51.522;7.020;2023-07-13T10:13:35;25.60;99.90
31639;DHT22;18248;51.522;7.020;2023-07-13T10:16:37;25.30;99.90
31639;DHT22;18248;51.522;7.020;2023-07-13T10:19:36;25.00;99.90
31639;DHT22;18248;51.522;7.020;2023-07-13T10:23:00;24.90;99.90
31639;DHT22;18248;51.522;7.020;2023-07-13T10:26:00;24.70;99.90
31639;DHT22;18248;51.522;7.020;2023-07-13T10:29:05;24.60;99.90
31639;DHT22;18248;51.522;7.020;2023-07-13T10:32:12;24.70;99.90
31639;DHT22;18248;51.522;7.020;2023-07-13T10:35:13;24.70;99.90
31639;DHT22;18248;51.522;7.020;2023-07-13T10:38:22;24.70;99.90
31639;DHT22;18248;51.522;7.020;2023-07-13T10:41:24;24.50;99.90
31639;DHT22;18248;51.522;7.020;2023-07-13T10:44:28;24.50;99.90
31639;DHT22;18248;51.522;7.020;2023-07-13T10:47:28;24.40;99.90
31639;DHT22;18248;51.522;7.020;2023-07-13T10:50:28;24.40;99.90
31639;DHT22;18248;51.522;7.020;2023-07-13T10:53:31;24.40;99.90
31639;DHT22;18248;51.522;7.020;2023-07-13T10:56:30;24.30;99.90
31639;DHT22;18248;51.522;7.020;2023-07-13T10:59:29;24.30;99.90
31639;DHT22;18248;51.522;7.020;2023-07-13T11:02:28;24.40;99.90
31639;DHT22;18248;51.522;7.020;2023-07-13T11:05:31;24.80;99.90
31639;DHT22;18248;51.522;7.020;2023-07-13T11:08:34;25.20;99.90
31639;DHT22;18248;51.522;7.020;2023-07-13T11:11:39;25.30;99.90
31639;DHT22;18248;51.522;7.020;2023-07-13T11:14:43;25.40;99.90
31639;DHT22;18248;51.522;7.020;2023-07-13T11:17:54;25.60;99.90
31639;DHT22;18248;51.522;7.020;2023-07-13T11:21:18;25.60;99.90
31639;DHT22;18248;51.522;7.020;2023-07-13T11:24:19;25.50;99.90
31639;DHT22;18248;51.522;7.020;2023-07-13T11:27:41;25.50;99.90
31639;DHT22;18248;51.522;7.020;2023-07-13T11:30:47;25.60;99.90
31639;DHT22;18248;51.522;7.020;2023-07-13T11:33:52;26.00;99.90
31639;DHT22;18248;51.522;7.020;2023-07-13T11:36:51;25.80;99.90
31639;DHT22;18248;51.522;7.020;2023-07-13T11:39:51;26.00;99.90
31639;DHT22;18248;51.522;7.020;2023-07-13T11:42:50;26.20;99.90
31639;DHT22;18248;51.522;7.020;2023-07-13T11:45:50;26.00;99.90
31639;DHT22;18248;51.522;7.020;2023-07-13T11:48:49;25.80;99.90
31639;DHT22;18248;51.522;7.020;2023-07-13T11:51:50;25.40;99.90
31639;DHT22;18248;51.522;7.020;2023-07-13T11:54:55;25.30;99.90
31639;DHT22;18248;51.522;7.020;2023-07-13T11:57:58;25.30;99.90
31639;DHT22;18248;51.522;7.020;2023-07-13T12:00:59;25.60;99.90
31639;DHT22;18248;51.522;7.020;2023-07-13T12:04:01;25.90;99.90
31639;DHT22;18248;51.522;7.020;2023-07-13T12:07:07;25.70;99.30
31639;DHT22;18248;51.522;7.020;2023-07-13T12:13:16;26.00;99.90
31639;DHT22;18248;51.522;7.020;2023-07-13T12:16:28;26.40;98.00
31639;DHT22;18248;51.522;7.020;2023-07-13T12:19:28;26.60;96.80
31639;DHT22;18248;51.522;7.020;2023-07-13T12:22:27;26.70;96.70
31639;DHT22;18248;51.522;7.020;2023-07-13T12:25:26;26.90;94.90
31639;DHT22;18248;51.522;7.020;2023-07-13T12:31:41;27.20;93.90
31639;DHT22;18248;51.522;7.020;2023-07-13T12:34:52;26.80;92.80
31639;DHT22;18248;51.522;7.020;2023-07-13T12:37:51;26.80;93.50
31639;DHT22;18248;51.522;7.020;2023-07-13T12:40:52;27.10;94.10
31639;DHT22;18248;51.522;7.020;2023-07-13T12:43:52;27.00;92.40
31639;DHT22;18248;51.522;7.020;2023-07-13T12:46:53;26.90;91.50
31639;DHT22;18248;51.522;7.020;2023-07-13T12:49:57;26.80;92.60
31639;DHT22;18248;51.522;7.020;2023-07-13T12:53:03;26.90;92.70
31639;DHT22;18248;51.522;7.020;2023-07-13T12:56:03;26.80;91.50
31639;DHT22;18248;51.522;7.020;2023-07-13T12:59:04;26.60;92.50
31639;DHT22;18248;51.522;7.020;2023-07-13T13:02:21;26.40;92.60
31639;DHT22;18248;51.522;7.020;2023-07-13T13:05:22;26.20;92.50
31639;DHT22;18248;51.522;7.020;2023-07-13T13:08:21;25.90;96.00
31639;DHT22;18248;51.522;7.020;2023-07-13T13:11:22;25.50;97.30
31639;DHT22;18248;51.522;7.020;2023-07-13T13:14:21;25.00;97.00
31639;DHT22;18248;51.522;7.020;2023-07-13T13:17:22;24.60;99.30
31639;DHT22;18248;51.522;7.020;2023-07-13T13:20:23;24.10;99.90
31639;DHT22;18248;51.522;7.020;2023-07-13T13:23:21;23.60;99.90
31639;DHT22;18248;51.522;7.020;2023-07-13T13:26:22;23.20;99.90
31639;DHT22;18248;51.522;7.020;2023-07-13T13:29:23;22.70;99.90
31639;DHT22;18248;51.522;7.020;2023-07-13T13:32:23;22.30;99.90
31639;DHT22;18248;51.522;7.020;2023-07-13T13:35:21;22.30;99.90
31639;DHT22;18248;51.522;7.020;2023-07-13T13:38:27;22.30;99.90
31639;DHT22;18248;51.522;7.020;2023-07-13T13:41:25;22.30;99.90
31639;DHT22;18248;51.522;7.020;2023-07-13T13:44:24;22.30;99.90
31639;DHT22;18248;51.522;7.020;2023-07-13T13:47:32;22.30;99.90
31639;DHT22;18248;51.522;7.020;2023-07-13T13:50:31;22.40;99.90
31639;DHT22;18248;51.522;7.020;2023-07-13T13:53:29;22.60;99.90
31639;DHT22;18248;51.522;7.020;2023-07-13T13:56:28;22.80;99.90
31639;DHT22;18248;51.522;7.020;2023-07-13T13:59:26;22.90;99.90
31639;DHT22;18248;51.522;7.020;2023-07-13T14:02:28;23.10;99.90
31639;DHT22;18248;51.522;7.020;2023-07-13T14:05:32;23.20;99.90
31639;DHT22;18248;51.522;7.020;2023-07-13T14:08:30;23.20;99.90
31639;DHT22;18248;51.522;7.020;2023-07-13T14:11:29;23.30;99.90
31639;DHT22;18248;51.522;7.020;2023-07-13T14:14:29;23.40;99.90
31639;DHT22;18248;51.522;7.020;2023-07-13T14:17:28;23.40;99.90
31639;DHT22;18248;51.522;7.020;2023-07-13T14:20:27;23.30;99.90
31639;DHT22;18248;51.522;7.020;2023-07-13T14:23:26;23.10;99.90
31639;DHT22;18248;51.522;7.020;2023-07-13T14:26:27;23.10;99.90
31639;DHT22;18248;51.522;7.020;2023-07-13T14:29:26;23.10;99.90
31639;DHT22;18248;51.522;7.020;2023-07-13T14:32:24;23.30;99.90
31639;DHT22;18248;51.522;7.020;2023-07-13T14:35:23;23.60;99.90
31639;DHT22;18248;51.522;7.020;2023-07-13T14:38:22;23.90;99.90
31639;DHT22;18248;51.522;7.020;2023-07-13T14:41:21;24.20;99.90
31639;DHT22;18248;51.522;7.020;2023-07-13T14:44:27;24.20;99.90
31639;DHT22;18248;51.522;7.020;2023-07-13T14:47:27;24.30;99.90
31639;DHT22;18248;51.522;7.020;2023-07-13T14:50:32;24.20;99.90
31639;DHT22;18248;51.522;7.020;2023-07-13T14:53:31;24.00;99.90
31639;DHT22;18248;51.522;7.020;2023-07-13T14:56:29;24.20;99.90
31639;DHT22;18248;51.522;7.020;2023-07-13T14:59:28;24.60;99.90
31639;DHT22;18248;51.522;7.020;2023-07-13T15:02:33;24.80;99.90
31639;DHT22;18248;51.522;7.020;2023-07-13T15:05:32;25.00;99.90
31639;DHT22;18248;51.522;7.020;2023-07-13T15:08:31;25.20;99.90
31639;DHT22;18248;51.522;7.020;2023-07-13T15:11:30;25.30;99.90
31639;DHT22;18248;51.522;7.020;2023-07-13T15:14:28;25.30;99.90
31639;DHT22;18248;51.522;7.020;2023-07-13T15:17:47;25.10;99.90
31639;DHT22;18248;51.522;7.020;2023-07-13T15:20:47;24.90;99.90
31639;DHT22;18248;51.522;7.020;2023-07-13T15:23:46;24.80;99.90
31639;DHT22;18248;51.522;7.020;2023-07-13T15:26:45;24.70;99.90
31639;DHT22;18248;51.522;7.020;2023-07-13T15:29:44;24.60;99.90
31639;DHT22;18248;51.522;7.020;2023-07-13T15:32:45;24.60;99.90
31639;DHT22;18248;51.522;7.020;2023-07-13T15:35:44;24.50;99.90
31639;DHT22;18248;51.522;7.020;2023-07-13T15:38:46;24.50;99.90
31639;DHT22;18248;51.522;7.020;2023-07-13T15:41:46;24.40;99.90
31639;DHT22;18248;51.522;7.020;2023-07-13T15:44:45;24.00;99.90
31639;DHT22;18248;51.522;7.020;2023-07-13T15:47:49;23.30;99.90
31639;DHT22;18248;51.522;7.020;2023-07-13T15:50:51;22.90;99.90
31639;DHT22;18248;51.522;7.020;2023-07-13T15:53:49;22.70;99.90
31639;DHT22;18248;51.522;7.020;2023-07-13T15:56:55;22.60;99.90
31639;DHT22;18248;51.522;7.020;2023-07-13T15:59:54;22.40;99.90
31639;DHT22;18248;51.522;7.020;2023-07-13T16:02:53;22.30;99.90
31639;DHT22;18248;51.522;7.020;2023-07-13T16:05:53;22.30;99.90
31639;DHT22;18248;51.522;7.020;2023-07-13T16:08:53;22.30;99.90
31639;DHT22;18248;51.522;7.020;2023-07-13T16:11:51;22.30;99.90
31639;DHT22;18248;51.522;7.020;2023-07-13T16:14:50;22.30;99.90
31639;DHT22;18248;51.522;7.020;2023-07-13T16:17:49;22.20;99.90
31639;DHT22;18248;51.522;7.020;2023-07-13T16:20:49;22.10;99.90
31639;DHT22;18248;51.522;7.020;2023-07-13T16:23:47;21.90;99.90
31639;DHT22;18248;51.522;7.020;2023-07-13T16:26:47;22.00;99.90
31639;DHT22;18248;51.522;7.020;2023-07-13T16:29:46;22.10;99.90
31639;DHT22;18248;51.522;7.020;2023-07-13T16:32:45;22.00;99.90
31639;DHT22;18248;51.522;7.020;2023-07-13T16:35:43;22.10;99.90
31639;DHT22;18248;51.522;7.020;2023-07-13T16:38:43;22.10;99.90
31639;DHT22;18248;51.522;7.020;2023-07-13T16:41:42;22.20;99.90
31639;DHT22;18248;51.522;7.020;2023-07-13T16:44:41;22.20;99.90
31639;DHT22;18248;51.522;7.020;2023-07-13T16:47:41;22.30;99.90
31639;DHT22;18248;51.522;7.020;2023-07-13T16:50:43;22.40;99.90
31639;DHT22;18248;51.522;7.020;2023-07-13T16:53:43;22.40;99.90
31639;DHT22;18248;51.522;7.020;2023-07-13T16:56:42;22.40;99.90
31639;DHT22;18248;51.522;7.020;2023-07-13T16:59:41;22.40;99.90
31639;DHT22;18248;51.522;7.020;2023-07-13T17:02:40;22.30;99.90
31639;DHT22;18248;51.522;7.020;2023-07-13T17:05:41;22.30;99.90
31639;DHT22;18248;51.522;7.020;2023-07-13T17:08:43;22.20;99.90
31639;DHT22;18248;51.522;7.020;2023-07-13T17:11:43;22.20;99.90
31639;DHT22;18248;51.522;7.020;2023-07-13T17:14:44;22.10;99.90
31639;DHT22;18248;51.522;7.020;2023-07-13T17:17:45;22.10;99.90
31639;DHT22;18248;51.522;7.020;2023-07-13T17:20:45;22.10;99.90
31639;DHT22;18248;51.522;7.020;2023-07-13T17:23:46;22.20;99.90
31639;DHT22;18248;51.522;7.020;2023-07-13T17:26:50;22.10;99.90
31639;DHT22;18248;51.522;7.020;2023-07-13T17:29:49;22.10;99.90
31639;DHT22;18248;51.522;7.020;2023-07-13T17:32:50;22.10;99.90
31639;DHT22;18248;51.522;7.020;2023-07-13T17:35:52;22.10;99.90
31639;DHT22;18248;51.522;7.020;2023-07-13T17:38:50;22.10;99.90
31639;DHT22;18248;51.522;7.020;2023-07-13T17:41:54;22.10;99.90
31639;DHT22;18248;51.522;7.020;2023-07-13T17:44:53;22.10;99.90
31639;DHT22;18248;51.522;7.020;2023-07-13T17:47:52;22.10;99.90
31639;DHT22;18248;51.522;7.020;2023-07-13T17:50:54;22.00;99.90
31639;DHT22;18248;51.522;7.020;2023-07-13T17:53:54;22.00;99.90
31639;DHT22;18248;51.522;7.020;2023-07-13T17:56:54;21.90;99.90
31639;DHT22;18248;51.522;7.020;2023-07-13T17:59:53;21.90;99.90
31639;DHT22;18248;51.522;7.020;2023-07-13T18:02:55;21.80;99.90
31639;DHT22;18248;51.522;7.020;2023-07-13T18:05:55;21.90;99.90
31639;DHT22;18248;51.522;7.020;2023-07-13T18:08:56;21.90;99.90
31639;DHT22;18248;51.522;7.020;2023-07-13T18:11:54;21.90;99.90
31639;DHT22;18248;51.522;7.020;2023-07-13T18:14:56;22.00;99.90
31639;DHT22;18248;51.522;7.020;2023-07-13T18:17:58;22.00;99.90
31639;DHT22;18248;51.522;7.020;2023-07-13T18:20:58;21.90;99.90
31639;DHT22;18248;51.522;7.020;2023-07-13T18:23:58;21.80;99.90
31639;DHT22;18248;51.522;7.020;2023-07-13T18:26:59;21.70;99.90
31639;DHT22;18248;51.522;7.020;2023-07-13T18:29:58;21.70;99.90
31639;DHT22;18248;51.522;7.020;2023-07-13T18:32:56;21.70;99.90
31639;DHT22;18248;51.522;7.020;2023-07-13T18:35:59;21.70;99.90
31639;DHT22;18248;51.522;7.020;2023-07-13T18:38:58;21.70;99.90
31639;DHT22;18248;51.522;7.020;2023-07-13T18:41:57;21.60;99.90
31639;DHT22;18248;51.522;7.020;2023-07-13T18:44:56;21.50;99.90
31639;DHT22;18248;51.522;7.020;2023-07-13T18:47:56;21.50;99.90
31639;DHT22;18248;51.522;7.020;2023-07-13T18:50:57;21.40;99.90
31639;DHT22;18248;51.522;7.020;2023-07-13T18:53:56;21.40;99.90
31639;DHT22;18248;51.522;7.020;2023-07-13T18:56:54;21.30;99.90
31639;DHT22;18248;51.522;7.020;2023-07-13T18:59:53;21.20;99.90
31639;DHT22;18248;51.522;7.020;2023-07-13T19:02:52;21.20;99.90
31639;DHT22;18248;51.522;7.020;2023-07-13T19:05:50;21.10;99.90
31639;DHT22;18248;51.522;7.020;2023-07-13T19:08:49;21.10;99.90
31639;DHT22;18248;51.522;7.020;2023-07-13T19:11:48;21.00;99.90
31639;DHT22;18248;51.522;7.020;2023-07-13T19:14:49;20.90;99.90
31639;DHT22;18248;51.522;7.020;2023-07-13T19:17:51;20.90;99.90